sensor_id;sensor_type;location;lat;lon;timestamp;P1;durP1;ratioP1;P2;durP2;ratioP2
48849;SDS011;63210;53.370;6.770;2022-09-03T00:00:06;2.70;;;1.33;;
48849;SDS011;63210;53.370;6.770;2022-09-03T00:02:40;3.25;;;1.40;;
48849;SDS011;63210;53.370;6.770;2022-09-03T00:05:11;2.63;;;1.25;;
48849;SDS011;63210;53.370;6.770;2022-09-03T00:07:49;3.92;;;1.58;;
48849;SDS011;63210;53.370;6.770;2022-09-03T00:10:30;2.33;;;1.20;;
48849;SDS011;63210;53.370;6.770;2022-09-03T00:12:58;4.88;;;1.35;;
48849;SDS011;63210;53.370;6.770;2022-09-03T00:15:24;2.50;;;1.67;;
48849;SDS011;63210;53.370;6.770;2022-09-03T00:17:52;3.63;;;1.45;;
48849;SDS011;63210;53.370;6.770;2022-09-03T00:20:30;4.55;;;1.38;;
48849;SDS011;63210;53.370;6.770;2022-09-03T00:22:57;3.72;;;1.42;;
48849;SDS011;63210;53.370;6.770;2022-09-03T00:28:10;4.13;;;1.33;;
48849;SDS011;63210;53.370;6.770;2022-09-03T00:30:37;3.53;;;1.30;;
48849;SDS011;63210;53.370;6.770;2022-09-03T00:33:08;4.78;;;1.40;;
48849;SDS011;63210;53.370;6.770;2022-09-03T00:35:39;4.63;;;1.50;;
48849;SDS011;63210;53.370;6.770;2022-09-03T00:38:06;1.95;;;1.40;;
48849;SDS011;63210;53.370;6.770;2022-09-03T00:43:17;8.32;;;1.30;;
48849;SDS011;63210;53.370;6.770;2022-09-03T00:45:53;1.80;;;1.40;;
48849;SDS011;63210;53.370;6.770;2022-09-03T00:48:23;2.17;;;1.40;;
48849;SDS011;63210;53.370;6.770;2022-09-03T00:51:12;2.33;;;1.30;;
48849;SDS011;63210;53.370;6.770;2022-09-03T00:54:04;3.58;;;1.50;;
48849;SDS011;63210;53.370;6.770;2022-09-03T00:56:36;2.00;;;1.20;;
48849;SDS011;63210;53.370;6.770;2022-09-03T01:10:00;1.92;;;1.25;;
48849;SDS011;63210;53.370;6.770;2022-09-03T01:15:05;7.45;;;1.75;;
48849;SDS011;63210;53.370;6.770;2022-09-03T01:30:40;4.78;;;1.40;;
48849;SDS011;63210;53.370;6.770;2022-09-03T01:43:37;3.17;;;1.42;;
48849;SDS011;63210;53.370;6.770;2022-09-03T01:46:07;4.22;;;1.70;;
48849;SDS011;63210;53.370;6.770;2022-09-03T01:48:47;5.78;;;1.73;;
48849;SDS011;63210;53.370;6.770;2022-09-03T01:59:22;3.20;;;1.40;;
48849;SDS011;63210;53.370;6.770;2022-09-03T02:01:54;2.78;;;1.50;;
48849;SDS011;63210;53.370;6.770;2022-09-03T02:04:24;7.20;;;1.52;;
48849;SDS011;63210;53.370;6.770;2022-09-03T02:06:50;5.47;;;1.38;;
48849;SDS011;63210;53.370;6.770;2022-09-03T02:09:15;2.72;;;1.60;;
48849;SDS011;63210;53.370;6.770;2022-09-03T02:11:41;3.78;;;1.70;;
48849;SDS011;63210;53.370;6.770;2022-09-03T02:14:07;4.10;;;1.55;;
48849;SDS011;63210;53.370;6.770;2022-09-03T02:16:33;4.27;;;1.40;;
48849;SDS011;63210;53.370;6.770;2022-09-03T02:19:00;3.53;;;1.45;;
48849;SDS011;63210;53.370;6.770;2022-09-03T02:21:27;2.60;;;1.45;;
48849;SDS011;63210;53.370;6.770;2022-09-03T02:23:54;4.05;;;1.60;;
48849;SDS011;63210;53.370;6.770;2022-09-03T02:26:20;3.50;;;1.98;;
48849;SDS011;63210;53.370;6.770;2022-09-03T02:28:46;2.20;;;1.60;;
48849;SDS011;63210;53.370;6.770;2022-09-03T02:31:12;5.35;;;1.60;;
48849;SDS011;63210;53.370;6.770;2022-09-03T02:33:38;2.67;;;1.70;;
48849;SDS011;63210;53.370;6.770;2022-09-03T02:36:05;2.53;;;1.67;;
48849;SDS011;63210;53.370;6.770;2022-09-03T02:38:31;5.43;;;1.55;;
48849;SDS011;63210;53.370;6.770;2022-09-03T02:40:56;2.45;;;1.50;;
48849;SDS011;63210;53.370;6.770;2022-09-03T02:45:50;6.72;;;1.60;;
48849;SDS011;63210;53.370;6.770;2022-09-03T02:48:19;6.05;;;1.98;;
48849;SDS011;63210;53.370;6.770;2022-09-03T02:50:46;2.42;;;1.48;;
48849;SDS011;63210;53.370;6.770;2022-09-03T02:53:11;5.78;;;1.70;;
48849;SDS011;63210;53.370;6.770;2022-09-03T02:55:36;1.90;;;1.33;;
48849;SDS011;63210;53.370;6.770;2022-09-03T02:58:02;2.88;;;1.80;;
48849;SDS011;63210;53.370;6.770;2022-09-03T03:00:30;3.30;;;1.40;;
48849;SDS011;63210;53.370;6.770;2022-09-03T03:02:55;3.38;;;1.60;;
48849;SDS011;63210;53.370;6.770;2022-09-03T03:05:42;3.17;;;1.87;;
48849;SDS011;63210;53.370;6.770;2022-09-03T03:08:05;6.10;;;2.33;;
48849;SDS011;63210;53.370;6.770;2022-09-03T03:10:32;3.58;;;1.40;;
48849;SDS011;63210;53.370;6.770;2022-09-03T03:12:59;2.53;;;1.35;;
48849;SDS011;63210;53.370;6.770;2022-09-03T03:15:24;4.18;;;1.60;;
48849;SDS011;63210;53.370;6.770;2022-09-03T03:17:50;3.28;;;1.40;;
48849;SDS011;63210;53.370;6.770;2022-09-03T03:20:15;5.67;;;2.03;;
48849;SDS011;63210;53.370;6.770;2022-09-03T03:22:40;2.92;;;1.40;;
48849;SDS011;63210;53.370;6.770;2022-09-03T03:25:05;1.73;;;1.40;;
48849;SDS011;63210;53.370;6.770;2022-09-03T03:27:31;2.75;;;1.83;;
48849;SDS011;63210;53.370;6.770;2022-09-03T03:29:56;6.63;;;1.87;;
48849;SDS011;63210;53.370;6.770;2022-09-03T03:32:22;2.42;;;1.77;;
48849;SDS011;63210;53.370;6.770;2022-09-03T03:34:47;3.20;;;1.65;;
48849;SDS011;63210;53.370;6.770;2022-09-03T03:37:12;3.23;;;1.83;;
48849;SDS011;63210;53.370;6.770;2022-09-03T03:39:37;3.45;;;1.70;;
48849;SDS011;63210;53.370;6.770;2022-09-03T03:42:03;2.45;;;1.77;;
48849;SDS011;63210;53.370;6.770;2022-09-03T03:44:28;2.70;;;1.93;;
48849;SDS011;63210;53.370;6.770;2022-09-03T03:46:53;4.68;;;1.80;;
48849;SDS011;63210;53.370;6.770;2022-09-03T03:49:19;3.53;;;1.80;;
48849;SDS011;63210;53.370;6.770;2022-09-03T03:51:44;5.90;;;1.87;;
48849;SDS011;63210;53.370;6.770;2022-09-03T03:54:09;2.37;;;1.50;;
48849;SDS011;63210;53.370;6.770;2022-09-03T03:56:34;3.30;;;2.00;;
48849;SDS011;63210;53.370;6.770;2022-09-03T03:59:00;3.22;;;1.73;;
48849;SDS011;63210;53.370;6.770;2022-09-03T04:01:25;5.55;;;1.90;;
48849;SDS011;63210;53.370;6.770;2022-09-03T04:03:53;3.88;;;2.00;;
48849;SDS011;63210;53.370;6.770;2022-09-03T04:06:19;2.78;;;1.70;;
48849;SDS011;63210;53.370;6.770;2022-09-03T04:08:45;3.53;;;1.75;;
48849;SDS011;63210;53.370;6.770;2022-09-03T04:11:12;6.90;;;2.00;;
48849;SDS011;63210;53.370;6.770;2022-09-03T04:13:39;2.47;;;1.63;;
48849;SDS011;63210;53.370;6.770;2022-09-03T04:16:08;2.00;;;1.70;;
48849;SDS011;63210;53.370;6.770;2022-09-03T04:18:35;2.97;;;1.70;;
48849;SDS011;63210;53.370;6.770;2022-09-03T04:23:28;4.70;;;1.92;;
48849;SDS011;63210;53.370;6.770;2022-09-03T04:25:53;3.05;;;1.85;;
48849;SDS011;63210;53.370;6.770;2022-09-03T04:28:18;4.90;;;2.30;;
48849;SDS011;63210;53.370;6.770;2022-09-03T04:30:43;5.57;;;1.97;;
48849;SDS011;63210;53.370;6.770;2022-09-03T04:33:09;5.10;;;2.10;;
48849;SDS011;63210;53.370;6.770;2022-09-03T04:35:34;5.13;;;1.90;;
48849;SDS011;63210;53.370;6.770;2022-09-03T04:37:59;2.50;;;1.70;;
48849;SDS011;63210;53.370;6.770;2022-09-03T04:40:24;4.23;;;1.97;;
48849;SDS011;63210;53.370;6.770;2022-09-03T04:42:49;2.50;;;2.00;;
48849;SDS011;63210;53.370;6.770;2022-09-03T04:45:16;3.28;;;1.67;;
48849;SDS011;63210;53.370;6.770;2022-09-03T04:47:54;5.43;;;2.22;;
48849;SDS011;63210;53.370;6.770;2022-09-03T04:50:20;2.17;;;1.83;;
48849;SDS011;63210;53.370;6.770;2022-09-03T04:52:46;3.22;;;1.50;;
48849;SDS011;63210;53.370;6.770;2022-09-03T04:55:11;5.50;;;1.80;;
48849;SDS011;63210;53.370;6.770;2022-09-03T04:57:36;3.00;;;1.73;;
48849;SDS011;63210;53.370;6.770;2022-09-03T05:00:02;4.20;;;1.67;;
48849;SDS011;63210;53.370;6.770;2022-09-03T05:02:28;3.42;;;2.20;;
48849;SDS011;63210;53.370;6.770;2022-09-03T05:04:53;2.90;;;1.87;;
48849;SDS011;63210;53.370;6.770;2022-09-03T05:07:18;3.17;;;1.98;;
48849;SDS011;63210;53.370;6.770;2022-09-03T05:09:44;2.08;;;1.80;;
48849;SDS011;63210;53.370;6.770;2022-09-03T05:12:10;2.97;;;1.73;;
48849;SDS011;63210;53.370;6.770;2022-09-03T05:14:35;5.40;;;2.00;;
48849;SDS011;63210;53.370;6.770;2022-09-03T05:17:00;2.70;;;1.67;;
48849;SDS011;63210;53.370;6.770;2022-09-03T05:19:26;2.20;;;1.70;;
48849;SDS011;63210;53.370;6.770;2022-09-03T05:21:51;2.50;;;1.87;;
48849;SDS011;63210;53.370;6.770;2022-09-03T05:24:16;3.37;;;1.83;;
48849;SDS011;63210;53.370;6.770;2022-09-03T05:26:41;3.23;;;1.70;;
48849;SDS011;63210;53.370;6.770;2022-09-03T05:29:07;3.67;;;1.90;;
48849;SDS011;63210;53.370;6.770;2022-09-03T05:31:32;4.10;;;1.65;;
48849;SDS011;63210;53.370;6.770;2022-09-03T05:33:58;3.92;;;1.70;;
48849;SDS011;63210;53.370;6.770;2022-09-03T05:36:25;2.50;;;1.80;;
48849;SDS011;63210;53.370;6.770;2022-09-03T05:38:51;3.75;;;1.58;;
48849;SDS011;63210;53.370;6.770;2022-09-03T05:41:18;3.42;;;1.90;;
48849;SDS011;63210;53.370;6.770;2022-09-03T05:43:46;3.03;;;1.77;;
48849;SDS011;63210;53.370;6.770;2022-09-03T05:46:12;1.92;;;1.80;;
48849;SDS011;63210;53.370;6.770;2022-09-03T05:48:39;6.90;;;1.70;;
48849;SDS011;63210;53.370;6.770;2022-09-03T05:51:09;1.52;;;1.42;;
48849;SDS011;63210;53.370;6.770;2022-09-03T05:53:35;2.75;;;1.70;;
48849;SDS011;63210;53.370;6.770;2022-09-03T05:56:01;6.93;;;1.95;;
48849;SDS011;63210;53.370;6.770;2022-09-03T05:58:31;2.72;;;1.60;;
48849;SDS011;63210;53.370;6.770;2022-09-03T06:00:56;5.10;;;1.80;;
48849;SDS011;63210;53.370;6.770;2022-09-03T06:03:21;2.93;;;1.67;;
48849;SDS011;63210;53.370;6.770;2022-09-03T06:05:50;3.40;;;1.67;;
48849;SDS011;63210;53.370;6.770;2022-09-03T06:08:15;2.00;;;1.75;;
48849;SDS011;63210;53.370;6.770;2022-09-03T06:10:41;4.85;;;1.60;;
48849;SDS011;63210;53.370;6.770;2022-09-03T06:13:06;1.50;;;1.40;;
48849;SDS011;63210;53.370;6.770;2022-09-03T06:15:31;2.57;;;1.73;;
48849;SDS011;63210;53.370;6.770;2022-09-03T06:17:56;2.80;;;1.60;;
48849;SDS011;63210;53.370;6.770;2022-09-03T06:20:22;2.87;;;1.80;;
48849;SDS011;63210;53.370;6.770;2022-09-03T06:25:18;7.68;;;2.95;;
48849;SDS011;63210;53.370;6.770;2022-09-03T06:27:43;3.25;;;1.55;;
48849;SDS011;63210;53.370;6.770;2022-09-03T06:30:09;2.92;;;2.00;;
48849;SDS011;63210;53.370;6.770;2022-09-03T06:32:42;2.42;;;1.88;;
48849;SDS011;63210;53.370;6.770;2022-09-03T06:35:07;4.07;;;1.80;;
48849;SDS011;63210;53.370;6.770;2022-09-03T06:37:37;2.17;;;1.95;;
48849;SDS011;63210;53.370;6.770;2022-09-03T06:40:02;2.35;;;1.80;;
48849;SDS011;63210;53.370;6.770;2022-09-03T06:42:28;3.88;;;1.83;;
48849;SDS011;63210;53.370;6.770;2022-09-03T06:44:53;4.22;;;1.80;;
48849;SDS011;63210;53.370;6.770;2022-09-03T06:47:19;3.23;;;1.67;;
48849;SDS011;63210;53.370;6.770;2022-09-03T06:49:44;3.27;;;1.53;;
48849;SDS011;63210;53.370;6.770;2022-09-03T06:52:09;1.80;;;1.63;;
48849;SDS011;63210;53.370;6.770;2022-09-03T06:54:34;1.93;;;1.60;;
48849;SDS011;63210;53.370;6.770;2022-09-03T06:56:59;4.80;;;1.77;;
48849;SDS011;63210;53.370;6.770;2022-09-03T06:59:25;3.43;;;1.57;;
48849;SDS011;63210;53.370;6.770;2022-09-03T07:01:50;3.45;;;1.73;;
48849;SDS011;63210;53.370;6.770;2022-09-03T07:04:16;3.83;;;1.63;;
48849;SDS011;63210;53.370;6.770;2022-09-03T07:06:41;2.40;;;1.63;;
48849;SDS011;63210;53.370;6.770;2022-09-03T07:09:07;2.97;;;1.55;;
48849;SDS011;63210;53.370;6.770;2022-09-03T07:11:33;4.72;;;1.70;;
48849;SDS011;63210;53.370;6.770;2022-09-03T07:14:00;3.17;;;1.52;;
48849;SDS011;63210;53.370;6.770;2022-09-03T07:16:26;2.58;;;1.77;;
48849;SDS011;63210;53.370;6.770;2022-09-03T07:18:53;4.55;;;1.80;;
48849;SDS011;63210;53.370;6.770;2022-09-03T07:21:23;2.55;;;1.90;;
48849;SDS011;63210;53.370;6.770;2022-09-03T07:23:48;5.10;;;1.80;;
48849;SDS011;63210;53.370;6.770;2022-09-03T07:26:17;1.88;;;1.42;;
48849;SDS011;63210;53.370;6.770;2022-09-03T07:28:43;4.10;;;2.10;;
48849;SDS011;63210;53.370;6.770;2022-09-03T07:31:18;4.28;;;1.80;;
48849;SDS011;63210;53.370;6.770;2022-09-03T07:33:46;2.92;;;1.60;;
48849;SDS011;63210;53.370;6.770;2022-09-03T07:36:12;2.05;;;1.48;;
48849;SDS011;63210;53.370;6.770;2022-09-03T07:38:39;5.22;;;1.75;;
48849;SDS011;63210;53.370;6.770;2022-09-03T07:41:05;2.90;;;1.60;;
48849;SDS011;63210;53.370;6.770;2022-09-03T07:43:35;3.70;;;2.15;;
48849;SDS011;63210;53.370;6.770;2022-09-03T07:46:00;3.10;;;1.50;;
48849;SDS011;63210;53.370;6.770;2022-09-03T07:48:25;3.30;;;1.52;;
48849;SDS011;63210;53.370;6.770;2022-09-03T07:50:51;3.05;;;1.65;;
48849;SDS011;63210;53.370;6.770;2022-09-03T07:53:17;1.63;;;1.52;;
48849;SDS011;63210;53.370;6.770;2022-09-03T07:55:44;2.53;;;1.17;;
48849;SDS011;63210;53.370;6.770;2022-09-03T07:58:10;4.88;;;1.50;;
48849;SDS011;63210;53.370;6.770;2022-09-03T08:00:36;1.92;;;1.27;;
48849;SDS011;63210;53.370;6.770;2022-09-03T08:03:03;1.77;;;1.40;;
48849;SDS011;63210;53.370;6.770;2022-09-03T08:05:32;4.28;;;1.50;;
48849;SDS011;63210;53.370;6.770;2022-09-03T08:08:01;3.67;;;1.50;;
48849;SDS011;63210;53.370;6.770;2022-09-03T08:10:30;3.60;;;1.80;;
48849;SDS011;63210;53.370;6.770;2022-09-03T08:12:57;5.18;;;1.58;;
48849;SDS011;63210;53.370;6.770;2022-09-03T08:15:23;4.95;;;1.50;;
48849;SDS011;63210;53.370;6.770;2022-09-03T08:17:48;3.85;;;1.33;;
48849;SDS011;63210;53.370;6.770;2022-09-03T08:20:13;4.63;;;1.60;;
48849;SDS011;63210;53.370;6.770;2022-09-03T08:22:39;2.60;;;1.60;;
48849;SDS011;63210;53.370;6.770;2022-09-03T08:25:05;3.80;;;1.60;;
48849;SDS011;63210;53.370;6.770;2022-09-03T08:27:31;5.68;;;1.65;;
48849;SDS011;63210;53.370;6.770;2022-09-03T08:29:56;3.03;;;1.40;;
48849;SDS011;63210;53.370;6.770;2022-09-03T08:32:21;3.07;;;1.37;;
48849;SDS011;63210;53.370;6.770;2022-09-03T08:34:46;4.63;;;1.38;;
48849;SDS011;63210;53.370;6.770;2022-09-03T08:37:12;2.30;;;1.33;;
48849;SDS011;63210;53.370;6.770;2022-09-03T08:39:37;1.90;;;1.77;;
48849;SDS011;63210;53.370;6.770;2022-09-03T08:42:06;4.03;;;1.67;;
48849;SDS011;63210;53.370;6.770;2022-09-03T08:44:40;2.70;;;1.60;;
48849;SDS011;63210;53.370;6.770;2022-09-03T08:54:58;3.00;;;1.40;;
48849;SDS011;63210;53.370;6.770;2022-09-03T08:57:26;2.67;;;1.35;;
48849;SDS011;63210;53.370;6.770;2022-09-03T08:59:54;2.53;;;1.60;;
48849;SDS011;63210;53.370;6.770;2022-09-03T09:04:54;4.95;;;1.70;;
48849;SDS011;63210;53.370;6.770;2022-09-03T09:07:26;9.02;;;1.50;;
48849;SDS011;63210;53.370;6.770;2022-09-03T09:10:13;2.42;;;1.33;;
48849;SDS011;63210;53.370;6.770;2022-09-03T09:15:41;4.85;;;1.40;;
48849;SDS011;63210;53.370;6.770;2022-09-03T09:21:05;5.68;;;1.92;;
48849;SDS011;63210;53.370;6.770;2022-09-03T09:25:57;8.37;;;1.97;;
48849;SDS011;63210;53.370;6.770;2022-09-03T09:28:24;4.80;;;1.58;;
48849;SDS011;63210;53.370;6.770;2022-09-03T09:30:54;5.65;;;1.75;;
48849;SDS011;63210;53.370;6.770;2022-09-03T09:33:20;6.60;;;1.52;;
48849;SDS011;63210;53.370;6.770;2022-09-03T09:35:47;4.82;;;1.50;;
48849;SDS011;63210;53.370;6.770;2022-09-03T09:38:12;4.25;;;1.60;;
48849;SDS011;63210;53.370;6.770;2022-09-03T09:40:39;2.13;;;1.33;;
48849;SDS011;63210;53.370;6.770;2022-09-03T09:45:35;6.32;;;1.65;;
48849;SDS011;63210;53.370;6.770;2022-09-03T09:48:02;3.63;;;1.50;;
48849;SDS011;63210;53.370;6.770;2022-09-03T09:50:32;6.10;;;1.40;;
48849;SDS011;63210;53.370;6.770;2022-09-03T09:53:01;5.70;;;1.98;;
48849;SDS011;63210;53.370;6.770;2022-09-03T09:55:29;2.60;;;1.40;;
48849;SDS011;63210;53.370;6.770;2022-09-03T09:58:03;3.08;;;1.52;;
48849;SDS011;63210;53.370;6.770;2022-09-03T10:00:29;5.30;;;1.25;;
48849;SDS011;63210;53.370;6.770;2022-09-03T10:02:58;2.40;;;1.30;;
48849;SDS011;63210;53.370;6.770;2022-09-03T10:05:24;4.72;;;1.60;;
48849;SDS011;63210;53.370;6.770;2022-09-03T10:08:00;1.65;;;1.50;;
48849;SDS011;63210;53.370;6.770;2022-09-03T10:10:26;3.33;;;1.40;;
48849;SDS011;63210;53.370;6.770;2022-09-03T10:13:06;2.95;;;1.20;;
48849;SDS011;63210;53.370;6.770;2022-09-03T10:15:39;3.30;;;1.30;;
48849;SDS011;63210;53.370;6.770;2022-09-03T10:21:00;6.53;;;1.33;;
48849;SDS011;63210;53.370;6.770;2022-09-03T10:23:28;3.25;;;1.30;;
48849;SDS011;63210;53.370;6.770;2022-09-03T10:26:12;4.05;;;1.30;;
48849;SDS011;63210;53.370;6.770;2022-09-03T10:28:39;9.38;;;1.50;;
48849;SDS011;63210;53.370;6.770;2022-09-03T10:33:43;4.00;;;1.10;;
48849;SDS011;63210;53.370;6.770;2022-09-03T10:39:04;2.50;;;1.30;;
48849;SDS011;63210;53.370;6.770;2022-09-03T10:47:06;3.53;;;1.23;;
48849;SDS011;63210;53.370;6.770;2022-09-03T10:49:48;2.35;;;1.20;;
48849;SDS011;63210;53.370;6.770;2022-09-03T10:57:07;5.20;;;1.33;;
48849;SDS011;63210;53.370;6.770;2022-09-03T10:59:45;2.10;;;1.20;;
48849;SDS011;63210;53.370;6.770;2022-09-03T11:03:00;2.58;;;1.20;;
48849;SDS011;63210;53.370;6.770;2022-09-03T11:05:11;6.50;;;1.10;;
48849;SDS011;63210;53.370;6.770;2022-09-03T11:07:43;3.47;;;1.23;;
48849;SDS011;63210;53.370;6.770;2022-09-03T11:10:13;3.42;;;1.13;;
48849;SDS011;63210;53.370;6.770;2022-09-03T11:12:41;5.53;;;1.25;;
48849;SDS011;63210;53.370;6.770;2022-09-03T11:15:14;4.63;;;1.23;;
48849;SDS011;63210;53.370;6.770;2022-09-03T11:17:52;6.85;;;1.65;;
48849;SDS011;63210;53.370;6.770;2022-09-03T11:20:24;3.97;;;1.30;;
48849;SDS011;63210;53.370;6.770;2022-09-03T11:22:51;4.90;;;1.17;;
48849;SDS011;63210;53.370;6.770;2022-09-03T11:25:17;2.30;;;0.98;;
48849;SDS011;63210;53.370;6.770;2022-09-03T11:28:02;4.55;;;1.20;;
48849;SDS011;63210;53.370;6.770;2022-09-03T11:33:18;2.78;;;1.08;;
48849;SDS011;63210;53.370;6.770;2022-09-03T11:35:44;3.40;;;1.00;;
48849;SDS011;63210;53.370;6.770;2022-09-03T11:40:38;3.22;;;0.90;;
48849;SDS011;63210;53.370;6.770;2022-09-03T11:43:10;2.58;;;1.10;;
48849;SDS011;63210;53.370;6.770;2022-09-03T11:45:37;1.40;;;0.93;;
48849;SDS011;63210;53.370;6.770;2022-09-03T11:48:15;3.72;;;1.80;;
48849;SDS011;63210;53.370;6.770;2022-09-03T11:50:49;3.33;;;1.05;;
48849;SDS011;63210;53.370;6.770;2022-09-03T11:53:23;8.40;;;1.30;;
48849;SDS011;63210;53.370;6.770;2022-09-03T12:00:52;7.68;;;1.30;;
48849;SDS011;63210;53.370;6.770;2022-09-03T12:03:21;2.80;;;1.10;;
48849;SDS011;63210;53.370;6.770;2022-09-03T12:06:03;7.97;;;1.40;;
48849;SDS011;63210;53.370;6.770;2022-09-03T12:08:42;2.33;;;1.10;;
48849;SDS011;63210;53.370;6.770;2022-09-03T12:18:30;4.67;;;1.03;;
48849;SDS011;63210;53.370;6.770;2022-09-03T12:23:28;4.75;;;1.23;;
48849;SDS011;63210;53.370;6.770;2022-09-03T12:25:53;4.55;;;1.30;;
48849;SDS011;63210;53.370;6.770;2022-09-03T12:28:21;1.38;;;1.08;;
48849;SDS011;63210;53.370;6.770;2022-09-03T12:30:50;1.45;;;0.95;;
48849;SDS011;63210;53.370;6.770;2022-09-03T12:33:17;2.75;;;0.95;;
48849;SDS011;63210;53.370;6.770;2022-09-03T12:35:53;4.22;;;1.17;;
48849;SDS011;63210;53.370;6.770;2022-09-03T12:38:22;3.28;;;1.25;;
48849;SDS011;63210;53.370;6.770;2022-09-03T12:40:48;1.27;;;1.00;;
48849;SDS011;63210;53.370;6.770;2022-09-03T12:43:14;1.20;;;0.83;;
48849;SDS011;63210;53.370;6.770;2022-09-03T12:45:44;4.88;;;1.10;;
48849;SDS011;63210;53.370;6.770;2022-09-03T12:48:13;1.80;;;1.00;;
48849;SDS011;63210;53.370;6.770;2022-09-03T12:50:42;3.03;;;0.90;;
48849;SDS011;63210;53.370;6.770;2022-09-03T12:53:08;2.05;;;1.00;;
48849;SDS011;63210;53.370;6.770;2022-09-03T13:00:38;2.93;;;1.10;;
48849;SDS011;63210;53.370;6.770;2022-09-03T13:03:41;4.05;;;1.10;;
48849;SDS011;63210;53.370;6.770;2022-09-03T13:06:00;2.10;;;1.05;;
48849;SDS011;63210;53.370;6.770;2022-09-03T13:08:30;5.88;;;1.00;;
48849;SDS011;63210;53.370;6.770;2022-09-03T13:10:57;1.30;;;0.90;;
48849;SDS011;63210;53.370;6.770;2022-09-03T13:13:24;2.72;;;1.38;;
48849;SDS011;63210;53.370;6.770;2022-09-03T13:16:10;1.45;;;1.00;;
48849;SDS011;63210;53.370;6.770;2022-09-03T13:21:28;2.22;;;1.23;;
48849;SDS011;63210;53.370;6.770;2022-09-03T13:24:04;1.88;;;0.82;;
48849;SDS011;63210;53.370;6.770;2022-09-03T13:31:47;1.50;;;1.00;;
48849;SDS011;63210;53.370;6.770;2022-09-03T13:34:19;2.13;;;1.00;;
48849;SDS011;63210;53.370;6.770;2022-09-03T13:36:53;1.92;;;1.13;;
48849;SDS011;63210;53.370;6.770;2022-09-03T13:42:15;3.38;;;0.93;;
48849;SDS011;63210;53.370;6.770;2022-09-03T13:47:51;4.78;;;1.10;;
48849;SDS011;63210;53.370;6.770;2022-09-03T13:50:44;2.78;;;1.05;;
48849;SDS011;63210;53.370;6.770;2022-09-03T13:53:25;3.20;;;1.10;;
48849;SDS011;63210;53.370;6.770;2022-09-03T13:55:57;1.75;;;1.00;;
48849;SDS011;63210;53.370;6.770;2022-09-03T13:58:33;4.53;;;1.15;;
48849;SDS011;63210;53.370;6.770;2022-09-03T14:01:03;3.15;;;1.10;;
48849;SDS011;63210;53.370;6.770;2022-09-03T14:03:50;2.38;;;1.08;;
48849;SDS011;63210;53.370;6.770;2022-09-03T14:19:44;3.25;;;1.20;;
48849;SDS011;63210;53.370;6.770;2022-09-03T14:22:15;4.20;;;1.10;;
48849;SDS011;63210;53.370;6.770;2022-09-03T14:24:44;5.00;;;1.25;;
48849;SDS011;63210;53.370;6.770;2022-09-03T14:27:21;2.30;;;1.10;;
48849;SDS011;63210;53.370;6.770;2022-09-03T14:29:52;7.88;;;1.00;;
48849;SDS011;63210;53.370;6.770;2022-09-03T14:32:31;4.22;;;1.10;;
48849;SDS011;63210;53.370;6.770;2022-09-03T14:37:38;3.13;;;1.10;;
48849;SDS011;63210;53.370;6.770;2022-09-03T14:52:57;2.95;;;1.17;;
48849;SDS011;63210;53.370;6.770;2022-09-03T14:55:28;4.45;;;1.13;;
48849;SDS011;63210;53.370;6.770;2022-09-03T14:58:01;6.38;;;1.25;;
48849;SDS011;63210;53.370;6.770;2022-09-03T15:00:32;1.15;;;0.95;;
48849;SDS011;63210;53.370;6.770;2022-09-03T15:05:45;2.10;;;1.02;;
48849;SDS011;63210;53.370;6.770;2022-09-03T15:08:19;3.55;;;1.38;;
48849;SDS011;63210;53.370;6.770;2022-09-03T15:13:34;4.60;;;1.23;;
48849;SDS011;63210;53.370;6.770;2022-09-03T15:16:08;4.57;;;1.20;;
48849;SDS011;63210;53.370;6.770;2022-09-03T15:21:31;4.05;;;1.10;;
48849;SDS011;63210;53.370;6.770;2022-09-03T15:26:44;5.10;;;1.30;;
48849;SDS011;63210;53.370;6.770;2022-09-03T15:37:16;2.53;;;1.02;;
48849;SDS011;63210;53.370;6.770;2022-09-03T15:39:56;4.43;;;1.30;;
48849;SDS011;63210;53.370;6.770;2022-09-03T15:42:26;1.98;;;1.10;;
48849;SDS011;63210;53.370;6.770;2022-09-03T15:44:53;8.85;;;1.30;;
48849;SDS011;63210;53.370;6.770;2022-09-03T15:47:33;4.55;;;1.10;;
48849;SDS011;63210;53.370;6.770;2022-09-03T15:55:11;3.72;;;1.05;;
48849;SDS011;63210;53.370;6.770;2022-09-03T16:00:12;2.60;;;1.00;;
48849;SDS011;63210;53.370;6.770;2022-09-03T16:02:54;2.97;;;1.20;;
48849;SDS011;63210;53.370;6.770;2022-09-03T16:08:21;2.08;;;1.20;;
48849;SDS011;63210;53.370;6.770;2022-09-03T16:19:14;2.60;;;1.20;;
48849;SDS011;63210;53.370;6.770;2022-09-03T16:22:02;1.60;;;1.15;;
48849;SDS011;63210;53.370;6.770;2022-09-03T16:29:52;4.75;;;1.30;;
48849;SDS011;63210;53.370;6.770;2022-09-03T16:34:56;5.30;;;1.17;;
48849;SDS011;63210;53.370;6.770;2022-09-03T16:46:02;2.75;;;1.25;;
48849;SDS011;63210;53.370;6.770;2022-09-03T16:53:21;3.10;;;1.30;;
48849;SDS011;63210;53.370;6.770;2022-09-03T17:01:42;1.75;;;1.15;;
48849;SDS011;63210;53.370;6.770;2022-09-03T17:04:30;5.72;;;1.33;;
48849;SDS011;63210;53.370;6.770;2022-09-03T17:17:47;1.42;;;1.23;;
48849;SDS011;63210;53.370;6.770;2022-09-03T17:20:04;1.80;;;0.90;;
48849;SDS011;63210;53.370;6.770;2022-09-03T17:22:42;3.78;;;1.40;;
48849;SDS011;63210;53.370;6.770;2022-09-03T17:25:29;4.80;;;1.30;;
48849;SDS011;63210;53.370;6.770;2022-09-03T17:40:40;2.75;;;1.63;;
48849;SDS011;63210;53.370;6.770;2022-09-03T17:43:27;3.78;;;1.55;;
48849;SDS011;63210;53.370;6.770;2022-09-03T17:46:06;5.00;;;1.48;;
48849;SDS011;63210;53.370;6.770;2022-09-03T17:49:05;5.78;;;1.60;;
48849;SDS011;63210;53.370;6.770;2022-09-03T17:51:29;3.33;;;1.50;;
48849;SDS011;63210;53.370;6.770;2022-09-03T17:56:23;3.40;;;2.15;;
48849;SDS011;63210;53.370;6.770;2022-09-03T17:59:10;5.22;;;1.33;;
48849;SDS011;63210;53.370;6.770;2022-09-03T18:01:45;4.93;;;1.20;;
48849;SDS011;63210;53.370;6.770;2022-09-03T18:06:50;3.10;;;1.50;;
48849;SDS011;63210;53.370;6.770;2022-09-03T18:09:34;2.20;;;1.17;;
48849;SDS011;63210;53.370;6.770;2022-09-03T18:12:05;2.08;;;1.10;;
48849;SDS011;63210;53.370;6.770;2022-09-03T18:18:01;3.85;;;1.30;;
48849;SDS011;63210;53.370;6.770;2022-09-03T18:20:04;5.05;;;1.15;;
48849;SDS011;63210;53.370;6.770;2022-09-03T18:22:51;5.47;;;1.20;;
48849;SDS011;63210;53.370;6.770;2022-09-03T18:25:37;2.10;;;1.10;;
48849;SDS011;63210;53.370;6.770;2022-09-03T18:28:32;4.50;;;1.20;;
48849;SDS011;63210;53.370;6.770;2022-09-03T18:31:17;4.82;;;1.20;;
48849;SDS011;63210;53.370;6.770;2022-09-03T18:34:02;3.17;;;1.20;;
48849;SDS011;63210;53.370;6.770;2022-09-03T18:36:46;5.20;;;1.50;;
48849;SDS011;63210;53.370;6.770;2022-09-03T18:39:30;3.45;;;1.27;;
48849;SDS011;63210;53.370;6.770;2022-09-03T18:42:36;3.80;;;1.55;;
48849;SDS011;63210;53.370;6.770;2022-09-03T18:48:15;4.88;;;1.65;;
48849;SDS011;63210;53.370;6.770;2022-09-03T18:56:50;3.40;;;1.42;;
48849;SDS011;63210;53.370;6.770;2022-09-03T19:03:08;2.63;;;1.30;;
48849;SDS011;63210;53.370;6.770;2022-09-03T19:06:04;3.95;;;1.50;;
48849;SDS011;63210;53.370;6.770;2022-09-03T19:11:44;2.63;;;1.50;;
48849;SDS011;63210;53.370;6.770;2022-09-03T19:14:36;6.55;;;1.40;;
48849;SDS011;63210;53.370;6.770;2022-09-03T19:20:38;3.60;;;1.30;;
48849;SDS011;63210;53.370;6.770;2022-09-03T19:23:24;1.92;;;1.40;;
48849;SDS011;63210;53.370;6.770;2022-09-03T19:32:18;3.90;;;1.63;;
48849;SDS011;63210;53.370;6.770;2022-09-03T19:35:13;4.00;;;1.45;;
48849;SDS011;63210;53.370;6.770;2022-09-03T19:38:12;3.40;;;1.25;;
48849;SDS011;63210;53.370;6.770;2022-09-03T19:47:17;3.40;;;1.35;;
48849;SDS011;63210;53.370;6.770;2022-09-03T19:52:57;2.15;;;1.30;;
48849;SDS011;63210;53.370;6.770;2022-09-03T19:55:44;2.85;;;1.30;;
48849;SDS011;63210;53.370;6.770;2022-09-03T19:58:29;3.42;;;1.40;;
48849;SDS011;63210;53.370;6.770;2022-09-03T20:01:13;2.83;;;1.20;;
48849;SDS011;63210;53.370;6.770;2022-09-03T20:04:16;3.22;;;1.58;;